< < Back
Terminal Aerodrome Forecast


Current Version              Previous Versions:   1  2  3  4  5  6  7  8  9  

Terminal Aerodrome Forecast

849
FTUS42 KCAE 310800 AAC
TAFAGS
TAF AMD
KAGS 310847Z 3109/0106 VRB03KT P6SM SKC
      TEMPO 3109/3112 2SM BR
     FM311600 24007KT P6SM SCT250
     FM311800 26011G17KT P6SM FEW040 SCT120
     FM010300 28008KT P6SM SCT250=



Latest METAR

530
SAUS70 KWBC 311242 RRA
MTRAGS
METAR KAGS 311153Z COR 00000KT 6SM BR CLR 04/03 A3008 RMK AO2 SLP184
70009 I1000 I6000 T00390033 10072 20022 53006


USA.gov is the U.S. government's official web portal to all federal, state and local government web resources and services.